KBGM/BGM METAR and TAF weather

Enter ICAO airport designator
Station Type Date Time Source
KBGM METAR 2021/08/05 03:53 UTC NOAA

KBGM 050353Z 00000KT 10SM CLR 16/12 A3017 RMK AO2 SLP208 T01610122


Station Type Date Time Source
KBGM Decoded METAR 2021/08/05 03:53 UTC NOAA

BINGHAMTON REGIONAL AIRPORT, NY, United States (KBGM) 42-12N 75-59W 492M
Aug 04, 2021 - 11:53 PM EDT / 2021.08.05 0353 UTC
Wind: Calm:0
Visibility: 10 mile(s):0
Sky conditions: clear
Temperature: 61.0 F (16.1 C)
Dew Point: 54.0 F (12.2 C)
Relative Humidity: 77%
Pressure (altimeter): 30.17 in. Hg (1021 hPa)
ob: KBGM 050353Z 00000KT 10SM CLR 16/12 A3017 RMK AO2 SLP208 T01610122
cycle: 4

Station Type Date Time Source
KBGM TAF 2021/08/04 18:42 UTC NOAA

TAF KBGM 041739Z 0418/0518 VRB04KT P6SM SCT060 BKN250
FM050100 VRB03KT P6SM SKC
TEMPO 0510/0512 3SM BR SCT002
FM051400 36005KT P6SM FEW050

Example: see airport list